Garden Spring, Nevada Weather observations

Data are for 10 minute period ending at time listed.
 Day   Time    Ave.   Ave.  Ave.  Vector   Max.   Stn.    Total    Solar   Ave.  
  of    of     Air    Rel.  Wind   Wind    Wind   Baro.  Precip.   Rad.    Soil  
Year   Day     Temp.  Hum.  Speed  Dir.    Gust   Pres.                    Temp. 
2015   (PST)    F      %     mph   deg.    mph     mb.     in.     W/m2     F    
--------------------------------------------------------------------------------- 
  91    0:00   56.8    19    4.4   272      7.9   847.5    0.00       0    63.2  
  91    1:00   57.9    20    4.4   281     12.1   847.6    0.00       0    62.3  
  91    2:00   53.8    24    4.8   289      8.3   847.8    0.00       0    61.3  
  91    3:00   55.2    14    4.9   306     10.3   847.7    0.00       0    60.8  
  91    4:00   54.6    12    5.7   314     17.4   848.0    0.00       0    60.1  
  91    5:00   54.8    13    9.0   324     21.7   848.4    0.00       0    59.6  
  91    6:00   54.0    15    6.4   336     18.1   849.1    0.00      18    58.8  
  91    7:00   56.5    16    3.4    23     13.0   850.1    0.00     185    58.6  
  91    8:00   56.7    24    5.0    18     14.2   850.7    0.00     332    58.4  
  91    9:00   59.6    24    4.8   353     13.0   851.5    0.00     584    58.8  
  91   10:00   61.2    22    7.4    22     15.4   851.4    0.00     754    59.0  
  91   11:00   62.7    20    5.8    58     15.2   850.9    0.00     864    59.6  
  91   12:00   64.8    16    5.1   172     11.9   850.5    0.00     867    61.0  
  91   13:00   66.5    14    4.9   268     13.2   850.0    0.00     881    62.9  
  91   14:00   67.4    12    4.9   239     13.3   849.0    0.00     760    65.2  
  91   15:00   67.7    11    5.5   250     12.8   848.4    0.00     586    67.1  
  91   16:00   66.2    11    5.9   201     14.1   847.6    0.00     362    68.1  
  91   17:00   64.5    10    5.1   203     14.8   847.2    0.00     173    68.4  
  91   18:00   61.7    12    4.9   188     10.6   846.7    0.00      44    68.0  
  91   19:00   56.8    16    3.2   232      7.2   846.4    0.00       0    67.2  
  91   20:00   52.5    19    3.7   287      7.0   846.4    0.00       0    66.3  
  91   21:00   52.0    17    2.8   268      4.9   846.1    0.00       0    65.4  
  91   22:00   52.4    17    3.6   245      5.1   845.5    0.00       0    64.5  
  91   23:00   52.6    18    2.9   242      4.0   845.0    0.00       0    63.6  

Return to Garden Spring, Nevada graphs page.


Western Regional Climate Center,wrcc@dri.edu